Time;durP1;ratioP1;P1;durP2;ratioP2;P2;SDS_P1;SDS_P2;PMS_P1;PMS_P2;Temp;Humidity;BMP_temperature;BMP_pressure;BME280_temperature;BME280_humidity;BME280_pressure;Samples;Min_cycle;Max_cycle;Signal;HPM_P1;HPM_P2
2022/08/31 00:04:47;;;;;;;26.00;18.27;;;;;;;22.17;74.55;98994.16;5034150;28;20708;-81
2022/08/31 00:07:13;;;;;;;25.07;18.13;;;;;;;22.18;74.29;99013.09;5034158;28;20245;-82
2022/08/31 00:09:38;;;;;;;29.27;18.20;;;;;;;22.57;74.57;99053.13;5033989;28;20261;-81
2022/08/31 00:12:04;;;;;;;26.40;18.43;;;;;;;22.42;74.52;99032.63;5034317;28;20608;-81
2022/08/31 00:14:29;;;;;;;30.33;19.40;;;;;;;22.47;75.04;99054.94;5032713;28;20197;-81
2022/08/31 00:16:55;;;;;;;26.70;18.73;;;;;;;21.98;75.64;98972.00;5034177;28;20224;-82
2022/08/31 00:19:21;;;;;;;24.80;19.47;;;;;;;22.50;75.86;99052.31;5024134;28;20563;-83
2022/08/31 00:21:46;;;;;;;29.87;19.50;;;;;;;21.27;76.01;98866.94;5047130;28;20190;-80
2022/08/31 00:24:13;;;;;;;26.27;20.53;;;;;;;21.58;78.82;99001.50;5033773;28;20622;-80
2022/08/31 00:26:39;;;;;;;26.77;20.10;;;;;;;21.73;78.89;99001.38;5033865;28;20178;-81
2022/08/31 00:29:05;;;;;;;27.37;20.17;;;;;;;21.56;80.08;98995.50;5033798;28;20217;-80
2022/08/31 00:31:30;;;;;;;25.40;20.33;;;;;;;19.11;80.80;98593.00;5033591;28;20166;-81
2022/08/31 00:33:56;;;;;;;26.57;20.63;;;;;;;21.23;83.88;98998.28;5033900;28;20173;-82
2022/08/31 00:36:23;;;;;;;29.10;20.43;;;;;;;21.62;83.56;99055.56;5033710;28;20555;-81
2022/08/31 00:38:50;;;;;;;29.43;20.80;;;;;;;18.24;85.25;98549.53;5033968;28;20162;-81
2022/08/31 00:41:18;;;;;;;27.13;20.90;;;;;;;19.33;86.29;98731.53;5033721;28;20158;-80
2022/08/31 00:43:52;;;;;;;27.17;21.27;;;;;;;21.35;85.66;99044.56;5033648;28;20162;-80
2022/08/31 00:46:25;;;;;;;31.13;21.63;;;;;;;20.84;87.17;98986.44;5036355;28;20206;-80
2022/08/31 00:49:08;;;;;;;28.87;21.73;;;;;;;21.06;88.52;99048.09;5036608;28;20213;-78
2022/08/31 00:51:40;;;;;;;32.27;22.17;;;;;;;21.20;88.37;99049.78;5055691;28;20178;-78
2022/08/31 00:54:08;;;;;;;31.97;22.47;;;;;;;20.97;90.16;99048.13;5039088;28;20170;-82
2022/08/31 00:56:35;;;;;;;33.23;22.43;;;;;;;20.00;89.21;98849.53;5034296;28;20163;-81
2022/08/31 00:59:01;;;;;;;32.23;22.80;;;;;;;20.33;90.39;98943.72;5033926;28;20185;-81
2022/08/31 01:01:27;;;;;;;34.70;22.20;;;;;;;19.64;90.47;98832.47;5033766;28;20623;-82
2022/08/31 01:03:53;;;;;;;31.30;23.00;;;;;;;20.76;90.04;99013.91;5033793;28;20594;-82
2022/08/31 01:06:20;;;;;;;31.03;22.50;;;;;;;21.24;88.37;99039.47;5033157;28;20279;-83
2022/08/31 01:08:46;;;;;;;37.47;22.20;;;;;;;19.83;86.97;98775.06;5033109;28;20582;-82
2022/08/31 01:11:13;;;;;;;31.27;21.73;;;;;;;20.18;86.87;98831.50;5032068;28;20180;-82
2022/08/31 01:13:38;;;;;;;31.00;22.20;;;;;;;20.04;87.26;98817.84;5033198;28;20245;-82
2022/08/31 01:16:12;;;;;;;32.73;22.43;;;;;;;21.12;88.64;99022.34;5033268;28;20249;-83
2022/08/31 01:18:39;;;;;;;32.37;22.07;;;;;;;20.75;89.32;98974.44;5032456;28;20598;-83
2022/08/31 01:21:28;;;;;;;34.03;22.67;;;;;;;21.05;89.59;99036.09;5032861;28;20265;-83
2022/08/31 01:23:57;;;;;;;31.13;21.53;;;;;;;19.62;90.76;98831.63;5033083;28;20162;-83
2022/08/31 01:26:26;;;;;;;31.10;22.13;;;;;;;20.81;91.10;99032.75;5032905;28;20158;-84
2022/08/31 01:28:56;;;;;;;34.63;22.67;;;;;;;20.58;90.70;98981.34;5032463;28;20248;-82
2022/08/31 01:31:29;;;;;;;35.63;22.57;;;;;;;21.00;90.39;99034.41;5032775;28;20150;-82
2022/08/31 01:33:55;;;;;;;33.47;23.07;;;;;;;18.31;90.00;98587.97;5032880;28;20221;-83
2022/08/31 01:36:22;;;;;;;36.53;23.20;;;;;;;20.89;90.41;99034.44;5032551;28;20190;-83
2022/08/31 01:38:48;;;;;;;37.00;23.03;;;;;;;19.95;91.07;98911.22;5032525;28;21254;-83
2022/08/31 01:41:13;;;;;;;31.13;22.90;;;;;;;20.26;91.32;98968.59;5032289;28;20176;-83
2022/08/31 01:43:39;;;;;;;34.33;22.73;;;;;;;19.98;89.88;98902.63;5031721;28;20170;-83
2022/08/31 01:46:08;;;;;;;32.00;23.23;;;;;;;20.51;88.83;98964.25;5032274;28;20594;-83
2022/08/31 01:48:34;;;;;;;32.70;22.67;;;;;;;20.69;89.67;99007.03;5021685;28;20198;-83
2022/08/31 01:51:01;;;;;;;31.37;21.80;;;;;;;18.37;89.13;98631.56;5012630;28;20175;-81
2022/08/31 01:53:27;;;;;;;27.83;21.33;;;;;;;20.70;90.14;99039.63;5012770;28;20612;-81
2022/08/31 01:55:52;;;;;;;32.00;22.07;;;;;;;18.65;91.24;98730.72;5044176;28;20186;-81
2022/08/31 01:58:18;;;;;;;32.13;20.97;;;;;;;18.81;91.32;98747.81;5012321;28;20615;-81
2022/08/31 02:00:43;;;;;;;33.10;21.97;;;;;;;18.33;89.99;98642.63;5012225;28;20183;-80
2022/08/31 02:03:09;;;;;;;28.77;21.10;;;;;;;20.60;90.47;99036.25;5012106;28;20198;-80
2022/08/31 02:05:35;;;;;;;29.97;21.27;;;;;;;19.94;89.79;98904.34;5011919;28;20793;-81
2022/08/31 02:08:03;;;;;;;28.57;20.60;;;;;;;20.58;88.72;98989.94;5012321;28;20195;-80
2022/08/31 02:10:28;;;;;;;31.80;20.90;;;;;;;20.49;90.76;99025.97;5012108;28;20171;-80
2022/08/31 02:12:54;;;;;;;28.57;21.13;;;;;;;19.61;90.42;98852.19;5012013;28;20172;-80
2022/08/31 02:15:19;;;;;;;31.20;20.77;;;;;;;20.59;90.19;99021.66;5011863;28;20694;-82
2022/08/31 02:17:45;;;;;;;30.57;20.47;;;;;;;19.91;91.44;98935.19;5015069;28;20178;-82
2022/08/31 02:20:12;;;;;;;27.83;21.00;;;;;;;20.51;90.68;99023.41;5031580;28;20161;-81
2022/08/31 02:22:38;;;;;;;30.67;21.23;;;;;;;18.51;90.63;98699.94;5031419;28;20158;-82
2022/08/31 02:25:05;;;;;;;29.47;20.33;;;;;;;18.99;90.35;98788.84;5031725;28;20180;-82
2022/08/31 02:27:31;;;;;;;31.60;21.00;;;;;;;18.12;90.58;98644.34;5032269;28;20193;-81
2022/08/31 02:29:56;;;;;;;27.53;20.83;;;;;;;19.41;91.50;98854.78;5031645;28;20228;-82
2022/08/31 02:32:22;;;;;;;30.73;21.77;;;;;;;20.00;91.37;98945.47;5031559;28;20175;-82
2022/08/31 02:34:48;;;;;;;30.10;21.63;;;;;;;19.81;91.13;98917.22;5031245;28;20166;-82
2022/08/31 02:37:14;;;;;;;34.13;21.60;;;;;;;20.40;90.01;98982.28;5031470;28;20170;-82
2022/08/31 02:39:39;;;;;;;33.30;21.60;;;;;;;20.12;89.72;98944.59;5029703;28;20169;-82
2022/08/31 02:42:05;;;;;;;28.97;20.90;;;;;;;19.82;89.27;98847.00;5031507;28;20547;-81
2022/08/31 02:44:30;;;;;;;32.57;21.00;;;;;;;20.48;89.90;99003.69;5043427;28;20546;-83
2022/08/31 02:46:56;;;;;;;29.50;21.37;;;;;;;20.48;91.28;99024.25;5041270;28;20225;-82
2022/08/31 02:49:21;;;;;;;29.97;21.00;;;;;;;18.88;92.03;98779.44;5012177;28;20277;-81
2022/08/31 02:51:47;;;;;;;29.47;21.63;;;;;;;19.51;92.38;98897.53;5011624;28;20170;-81
2022/08/31 02:54:12;;;;;;;29.87;21.60;;;;;;;17.67;92.22;98590.47;5011558;28;20167;-81
2022/08/31 02:56:38;;;;;;;30.93;21.63;;;;;;;20.20;92.74;99011.41;5011345;28;20169;-82
2022/08/31 02:59:04;;;;;;;32.83;21.70;;;;;;;19.74;92.83;98962.63;5024696;28;20177;-81
2022/08/31 03:01:30;;;;;;;30.20;22.03;;;;;;;16.96;91.65;98460.63;5031336;28;20227;-81
2022/08/31 03:03:56;;;;;;;30.03;21.70;;;;;;;19.60;92.35;98914.66;5031097;28;20466;-81
2022/08/31 03:06:22;;;;;;;29.10;21.37;;;;;;;18.31;92.32;98719.53;5030887;28;20226;-81
2022/08/31 03:08:48;;;;;;;31.73;22.17;;;;;;;20.11;92.40;99004.56;5031347;28;20201;-81
2022/08/31 03:11:15;;;;;;;31.80;22.17;;;;;;;18.32;92.10;98694.75;5031326;28;20166;-82
2022/08/31 03:13:41;;;;;;;32.77;22.10;;;;;;;19.92;92.26;98966.88;5030939;28;20220;-82
2022/08/31 03:16:08;;;;;;;34.33;22.30;;;;;;;19.80;92.14;98949.78;5031394;28;20201;-80
2022/08/31 03:18:33;;;;;;;30.77;21.73;;;;;;;19.56;92.31;98915.53;5018784;28;20174;-81
2022/08/31 03:20:59;;;;;;;30.40;21.47;;;;;;;20.05;92.66;98999.44;5011156;28;20232;-80
2022/08/31 03:23:25;;;;;;;31.97;21.43;;;;;;;19.17;91.81;98827.34;5011389;28;20611;-80
2022/08/31 03:25:50;;;;;;;31.13;21.20;;;;;;;20.19;91.83;99002.81;5011313;28;20163;-81
2022/08/31 03:28:16;;;;;;;36.50;21.90;;;;;;;19.70;92.21;98929.22;5011184;28;20686;-81
2022/08/31 03:30:41;;;;;;;30.53;21.20;;;;;;;19.56;92.21;98892.44;5011292;28;20170;-80
2022/08/31 03:33:08;;;;;;;30.90;20.83;;;;;;;20.06;91.64;98975.44;5043219;28;20651;-81
2022/08/31 03:35:34;;;;;;;28.93;21.00;;;;;;;20.34;91.03;98997.72;5011139;28;20184;-81
2022/08/31 03:38:02;;;;;;;31.97;21.30;;;;;;;20.52;90.40;98997.66;5042898;28;20567;-81
2022/08/31 03:40:28;;;;;;;31.27;21.83;;;;;;;20.45;90.89;99006.28;5011391;28;20171;-82
2022/08/31 03:42:55;;;;;;;29.57;21.27;;;;;;;20.60;89.84;99001.06;5011019;28;20167;-81
2022/08/31 03:45:20;;;;;;;32.27;21.40;;;;;;;19.79;89.71;98881.28;5042849;28;20224;-81
2022/08/31 03:47:46;;;;;;;32.47;22.70;;;;;;;19.97;90.59;98921.47;5018518;28;20597;-81
2022/08/31 03:50:12;;;;;;;31.40;22.60;;;;;;;20.18;92.17;98996.00;5030584;28;20219;-82
2022/08/31 03:52:38;;;;;;;34.33;22.87;;;;;;;18.84;92.97;98794.00;5030969;28;20602;-81
2022/08/31 03:55:04;;;;;;;36.90;23.67;;;;;;;19.81;93.58;98956.63;5030854;28;20173;-81
2022/08/31 03:57:29;;;;;;;38.17;24.43;;;;;;;19.91;94.53;99006.28;5030872;28;20162;-80
2022/08/31 03:59:59;;;;;;;39.30;24.77;;;;;;;19.67;93.25;98940.34;5030512;28;20232;-81
2022/08/31 04:02:25;;;;;;;39.07;26.00;;;;;;;20.20;92.89;99014.84;5030823;28;20194;-81
2022/08/31 04:04:52;;;;;;;35.87;24.37;;;;;;;19.34;92.52;98900.06;5016828;28;20233;-81
2022/08/31 04:07:19;;;;;;;36.90;23.73;;;;;;;20.13;92.65;99020.00;5025210;28;20605;-80
2022/08/31 04:09:46;;;;;;;37.67;24.00;;;;;;;19.48;93.08;98924.91;5015202;28;20264;-81
2022/08/31 04:12:12;;;;;;;35.37;23.33;;;;;;;19.50;93.26;98925.81;5015040;28;20567;-82
2022/08/31 04:14:38;;;;;;;32.60;22.80;;;;;;;19.48;92.91;98935.19;5019694;28;20195;-83
2022/08/31 04:17:03;;;;;;;32.63;22.23;;;;;;;17.38;92.66;98567.31;5016406;28;20225;-82
2022/08/31 04:19:29;;;;;;;37.07;22.40;;;;;;;19.62;92.15;98942.06;5030221;28;20595;-82
2022/08/31 04:21:56;;;;;;;38.93;23.43;;;;;;;20.38;91.61;99030.25;5031589;28;20264;-82
2022/08/31 04:24:21;;;;;;;37.23;23.80;;;;;;;20.46;91.08;99033.69;5031784;28;20210;-82
2022/08/31 04:26:50;;;;;;;40.87;24.50;;;;;;;20.69;89.62;99032.78;5031973;28;20612;-82
2022/08/31 04:29:15;;;;;;;37.33;23.43;;;;;;;20.66;89.10;99040.53;5031626;28;20296;-81
2022/08/31 04:31:41;;;;;;;36.70;23.83;;;;;;;20.74;88.71;99028.50;5032521;28;20677;-85
2022/08/31 04:34:06;;;;;;;35.33;22.40;;;;;;;20.28;88.66;98935.16;5032981;28;20182;-82
2022/08/31 04:36:32;;;;;;;39.20;25.43;;;;;;;19.78;89.28;98881.25;5017285;28;20237;-82
2022/08/31 04:38:59;;;;;;;46.50;29.63;;;;;;;20.80;89.03;99033.59;5051279;28;20308;-78
2022/08/31 04:41:26;;;;;;;40.17;29.17;;;;;;;20.12;90.33;98957.44;5048576;28;20185;-80
2022/08/31 04:43:56;;;;;;;37.73;28.33;;;;;;;20.65;90.42;99028.50;5030640;28;20185;-82
2022/08/31 04:46:22;;;;;;;47.10;33.30;;;;;;;19.24;89.60;98805.97;5031208;28;20280;-82
2022/08/31 04:48:48;;;;;;;42.23;28.90;;;;;;;20.68;89.89;99023.38;5030085;28;20691;-82
2022/08/31 04:51:17;;;;;;;40.17;27.07;;;;;;;20.27;90.33;98965.16;5031563;28;20181;-81
2022/08/31 04:53:44;;;;;;;37.83;27.43;;;;;;;20.52;90.76;99018.25;5031446;28;20182;-82
2022/08/31 04:56:15;;;;;;;36.93;26.57;;;;;;;19.71;91.99;98910.38;5030965;28;20200;-81
2022/08/31 04:58:42;;;;;;;40.30;26.43;;;;;;;20.32;92.72;99014.88;5030186;28;20244;-81
2022/08/31 05:01:13;;;;;;;39.70;24.90;;;;;;;20.38;92.00;99007.13;5030594;28;20186;-81
2022/08/31 05:03:40;;;;;;;38.50;26.27;;;;;;;20.75;90.74;99019.91;5030713;28;20179;-81
2022/08/31 05:06:10;;;;;;;38.40;23.80;;;;;;;20.91;88.76;99000.97;5030733;28;20788;-80
2022/08/31 05:08:36;;;;;;;36.13;23.40;;;;;;;21.12;87.80;99021.53;5026307;28;20218;-81
2022/08/31 05:11:17;;;;;;;35.60;23.00;;;;;;;21.26;85.61;98985.41;5014638;28;20182;-81
2022/08/31 05:13:43;;;;;;;31.50;21.67;;;;;;;20.67;85.03;98883.59;5012994;28;20194;-82
2022/08/31 05:16:10;;;;;;;28.57;21.67;;;;;;;21.23;83.94;98957.94;5012738;28;20174;-80
2022/08/31 05:18:43;;;;;;;32.90;25.70;;;;;;;21.09;82.83;98897.97;5011787;28;20163;-81
2022/08/31 05:21:14;;;;;;;31.10;20.17;;;;;;;21.89;81.45;99020.22;5012817;28;20159;-81
2022/08/31 05:23:40;;;;;;;25.00;19.10;;;;;;;21.65;79.90;98928.44;5012679;28;20189;-81
2022/08/31 05:26:07;;;;;;;27.40;21.17;;;;;;;21.15;78.66;98828.44;5011336;28;20179;-82
2022/08/31 05:28:34;;;;;;;24.97;18.17;;;;;;;22.56;77.29;99017.88;5012822;28;20248;-82
2022/08/31 05:31:00;;;;;;;22.00;16.43;;;;;;;22.63;75.35;98967.91;5012513;28;20246;-81
2022/08/31 05:33:27;;;;;;;21.63;16.07;;;;;;;22.99;73.71;99011.38;5012506;28;20197;-83
2022/08/31 05:35:52;;;;;;;19.33;15.13;;;;;;;23.34;70.77;99005.75;5013009;28;20525;-81
2022/08/31 05:38:18;;;;;;;24.03;14.20;;;;;;;22.58;68.73;98880.22;5012835;28;20171;-80
2022/08/31 05:40:51;;;;;;;19.90;14.63;;;;;;;22.89;67.17;98827.34;5012820;28;20189;-81
2022/08/31 05:43:16;;;;;;;20.67;14.20;;;;;;;23.32;65.37;98889.50;5012852;28;20635;-82
2022/08/31 05:45:42;;;;;;;21.30;14.47;;;;;;;24.22;63.56;99002.72;5013678;28;20159;-81
2022/08/31 05:48:07;;;;;;;22.97;14.13;;;;;;;23.24;62.55;98836.28;5022582;28;20198;-80
2022/08/31 05:50:33;;;;;;;18.97;13.53;;;;;;;22.29;63.45;98722.41;5018144;28;20231;-82
2022/08/31 05:52:59;;;;;;;19.60;13.63;;;;;;;22.94;63.65;98818.69;5017120;28;20178;-82
2022/08/31 05:55:24;;;;;;;21.97;13.20;;;;;;;24.08;62.54;98982.22;5017319;28;20646;-82
2022/08/31 05:57:51;;;;;;;19.70;13.43;;;;;;;23.64;62.23;98865.78;5014162;28;20166;-83
2022/08/31 06:00:17;;;;;;;21.20;13.43;;;;;;;24.41;61.34;99006.69;5014528;28;20159;-81
2022/08/31 06:02:42;;;;;;;21.90;12.73;;;;;;;23.67;60.96;98867.47;5012843;28;20163;-81
2022/08/31 06:05:08;;;;;;;17.57;13.37;;;;;;;24.00;61.76;98934.94;5012352;28;20226;-81
2022/08/31 06:07:33;;;;;;;21.30;14.17;;;;;;;23.45;60.31;98766.19;5016778;28;20185;-82
2022/08/31 06:10:00;;;;;;;19.63;13.30;;;;;;;24.59;58.91;98932.97;5031786;28;20201;-82
2022/08/31 06:12:25;;;;;;;21.67;14.27;;;;;;;24.55;59.34;98910.66;4998523;28;20331;-82
2022/08/31 06:14:52;;;;;;;19.70;13.37;;;;;;;25.22;57.82;98990.38;5014980;28;20272;-82
2022/08/31 06:17:18;;;;;;;21.23;13.87;;;;;;;24.69;58.85;98919.00;5012244;28;20183;-82
2022/08/31 06:19:43;;;;;;;21.13;13.93;;;;;;;24.55;56.82;98854.56;5030190;28;20271;-83
2022/08/31 06:22:09;;;;;;;21.60;14.37;;;;;;;25.43;57.31;99010.66;5029804;28;20272;-82
2022/08/31 06:24:37;;;;;;;20.30;13.77;;;;;;;25.72;56.13;99010.03;5029865;28;20200;-83
2022/08/31 06:27:04;;;;;;;22.20;13.33;;;;;;;25.02;56.38;98979.63;5030159;28;20182;-82
2022/08/31 06:29:31;;;;;;;19.73;13.30;;;;;;;24.82;57.01;98969.66;5028514;28;20312;-82
2022/08/31 06:31:56;;;;;;;16.17;13.20;;;;;;;25.26;56.42;98994.63;5028842;28;20181;-82
2022/08/31 06:34:23;;;;;;;21.63;12.87;;;;;;;25.34;54.99;98971.13;5028635;28;20186;-82
2022/08/31 06:36:49;;;;;;;18.13;12.80;;;;;;;25.37;55.74;98986.63;5029360;28;20260;-85
2022/08/31 06:39:15;;;;;;;18.23;12.50;;;;;;;24.99;54.66;98892.47;5028851;28;20213;-86
2022/08/31 06:41:41;;;;;;;21.23;12.30;;;;;;;25.29;55.24;98947.91;5029916;28;20178;-86
2022/08/31 06:44:10;;;;;;;19.37;12.63;;;;;;;24.97;54.41;98865.72;5028159;28;20315;-85
2022/08/31 06:46:37;;;;;;;22.20;13.67;;;;;;;25.48;53.28;98918.13;5029395;28;20186;-86
2022/08/31 06:49:04;;;;;;;19.10;12.13;;;;;;;26.23;52.77;99024.34;5015852;28;20220;-85
2022/08/31 06:51:35;;;;;;;18.48;12.77;;;;;;;25.94;52.90;98933.38;5011636;28;20186;-85
2022/08/31 06:54:02;;;;;;;19.33;12.65;;;;;;;26.11;53.70;99024.63;5022304;28;20501;-84
2022/08/31 06:56:28;;;;;;;19.42;12.73;;;;;;;26.70;52.42;99012.69;5030274;28;20182;-84
2022/08/31 06:58:53;;;;;;;22.75;13.00;;;;;;;26.56;51.60;98900.59;5030860;28;20254;-86
2022/08/31 07:01:21;;;;;;;18.27;14.85;;;;;;;26.08;51.64;98850.00;5030255;28;20180;-85
2022/08/31 07:03:48;;;;;;;19.27;13.05;;;;;;;27.19;51.14;99006.16;5030795;28;20270;-85
2022/08/31 07:06:19;;;;;;;19.08;13.18;;;;;;;27.26;50.39;98963.47;5030265;28;20226;-85
2022/08/31 07:08:48;;;;;;;25.17;13.43;;;;;;;27.48;50.11;98968.00;5028799;28;20224;-85
2022/08/31 07:11:19;;;;;;;21.48;13.60;;;;;;;27.40;49.91;98957.00;5020442;28;20215;-85
2022/08/31 07:13:46;;;;;;;19.67;13.40;;;;;;;27.93;49.32;99015.13;5029606;28;20649;-84
2022/08/31 07:16:13;;;;;;;21.15;13.63;;;;;;;27.85;49.28;98990.25;5029481;28;20180;-86
2022/08/31 07:18:40;;;;;;;20.55;13.15;;;;;;;28.38;48.89;99011.88;5029129;28;20274;-87
2022/08/31 07:21:19;;;;;;;15.93;11.65;;;;;;;28.33;46.70;99014.66;5029408;28;20181;-87
2022/08/31 07:23:46;;;;;;;30.05;12.88;;;;;;;27.93;45.72;98931.00;5029053;28;20173;-87
2022/08/31 07:26:24;;;;;;;18.20;11.30;;;;;;;27.87;46.25;98902.56;5029520;28;20191;-88
2022/08/31 07:28:53;;;;;;;17.52;11.30;;;;;;;28.06;46.14;98982.59;5027483;28;20209;-88
2022/08/31 07:31:26;;;;;;;16.38;11.27;;;;;;;28.44;45.89;98970.88;5028584;28;20539;-84
2022/08/31 07:33:57;;;;;;;17.15;11.88;;;;;;;28.66;45.88;99018.75;5029307;28;20188;-89
2022/08/31 07:36:24;;;;;;;20.05;12.20;;;;;;;29.06;45.28;99018.13;5030632;28;20180;-88
2022/08/31 07:44:20;;;;;;;17.08;11.50;;;;;;;28.18;46.18;98937.09;5027153;28;20226;-87
2022/08/31 07:46:47;;;;;;;16.60;11.75;;;;;;;28.18;46.78;98926.69;5033533;28;20185;-86
2022/08/31 07:49:14;;;;;;;15.30;11.30;;;;;;;28.10;45.40;98820.19;5033009;28;20241;-86
2022/08/31 07:51:49;;;;;;;16.20;12.30;;;;;;;29.19;45.49;99005.50;5033589;28;20189;-87
2022/08/31 07:54:22;;;;;;;16.90;11.27;;;;;;;29.69;43.95;99011.41;5032966;28;20645;-87
2022/08/31 07:56:48;;;;;;;17.23;11.75;;;;;;;30.07;42.65;98983.75;5033007;28;20182;-88
2022/08/31 07:59:15;;;;;;;16.65;11.63;;;;;;;30.47;42.73;99002.06;5033355;28;20175;-88
2022/08/31 08:01:42;;;;;;;16.80;11.55;;;;;;;30.64;42.75;98989.13;5031897;28;20180;-88
2022/08/31 08:04:07;;;;;;;15.00;11.82;;;;;;;30.64;42.13;98999.56;5031746;28;20192;-87
2022/08/31 08:06:33;;;;;;;14.80;11.75;;;;;;;29.82;42.23;98850.78;5032748;28;20215;-87
2022/08/31 08:09:05;;;;;;;15.18;11.68;;;;;;;30.23;42.22;98961.28;5033051;28;20207;-87
2022/08/31 08:11:35;;;;;;;14.15;11.85;;;;;;;28.84;42.57;98772.25;5023570;28;20184;-88
2022/08/31 08:14:02;;;;;;;15.63;11.73;;;;;;;30.72;41.93;98986.16;5032440;28;20182;-88
2022/08/31 08:16:28;;;;;;;15.55;11.07;;;;;;;30.22;41.91;98855.97;5033114;28;20683;-88
2022/08/31 08:18:53;;;;;;;15.43;11.50;;;;;;;29.96;40.78;98782.31;5032450;28;20230;-86
2022/08/31 08:21:19;;;;;;;16.08;11.63;;;;;;;31.33;40.95;98992.94;5035256;28;20586;-86
2022/08/31 08:23:44;;;;;;;19.90;11.60;;;;;;;31.63;40.42;98969.72;5052783;28;20179;-86
2022/08/31 08:26:10;;;;;;;16.10;11.55;;;;;;;31.59;40.60;98986.47;5049524;28;20186;-86
2022/08/31 08:28:36;;;;;;;16.80;11.57;;;;;;;30.77;41.30;98862.16;5048673;28;20184;-86
2022/08/31 08:31:02;;;;;;;12.85;11.25;;;;;;;29.57;40.89;98657.88;5032011;28;20279;-86
2022/08/31 08:33:29;;;;;;;15.82;11.10;;;;;;;30.33;39.91;98709.19;5032976;28;20180;-87
2022/08/31 08:36:02;;;;;;;14.00;11.27;;;;;;;31.44;39.86;98919.16;5051859;28;20177;-86
2022/08/31 08:38:29;;;;;;;14.45;11.57;;;;;;;31.70;39.85;98976.34;5035614;28;20215;-86
2022/08/31 08:40:57;;;;;;;13.45;11.70;;;;;;;30.23;40.33;98766.25;5035239;28;20610;-86
2022/08/31 08:43:29;;;;;;;13.27;10.77;;;;;;;30.22;39.25;98664.44;5035054;28;20218;-87
2022/08/31 08:45:56;;;;;;;18.58;11.32;;;;;;;32.38;39.37;98977.34;5038264;28;20210;-86
2022/08/31 08:48:26;;;;;;;17.55;11.77;;;;;;;30.32;39.54;98765.84;5043814;28;20237;-86
2022/08/31 08:50:53;;;;;;;18.35;10.88;;;;;;;30.93;38.27;98727.22;5046678;28;20161;-87
2022/08/31 08:53:23;;;;;;;22.50;11.00;;;;;;;32.94;37.51;98984.84;5042400;28;20330;-87
2022/08/31 08:55:49;;;;;;;15.10;11.38;;;;;;;31.95;37.98;98890.41;5033577;28;20193;-86
2022/08/31 08:58:17;;;;;;;16.70;11.57;;;;;;;32.07;39.52;98981.50;5033315;28;20196;-86
2022/08/31 09:00:48;;;;;;;14.25;11.15;;;;;;;31.52;39.55;98946.69;5032861;28;20185;-86
2022/08/31 09:03:20;;;;;;;13.88;11.15;;;;;;;32.10;38.79;98976.13;5013651;28;20264;-86
2022/08/31 09:06:00;;;;;;;13.75;10.52;;;;;;;32.78;37.79;98963.84;5013371;28;20224;-85
2022/08/31 09:08:58;;;;;;;14.43;10.82;;;;;;;32.96;37.04;98968.13;5013214;28;20202;-85
2022/08/31 09:11:29;;;;;;;17.80;10.80;;;;;;;33.07;36.89;98965.75;5012957;28;20308;-85
2022/08/31 09:14:19;;;;;;;15.00;10.57;;;;;;;32.41;38.01;98964.06;5013209;28;20200;-86
2022/08/31 09:17:05;;;;;;;15.20;10.30;;;;;;;31.93;38.56;98960.38;5013169;28;20183;-85
2022/08/31 09:19:57;;;;;;;12.48;10.70;;;;;;;31.57;39.02;98953.47;5013365;28;20165;-86
2022/08/31 09:22:16;;;;;;;13.63;10.20;;;;;;;31.97;38.33;98948.81;5012938;28;20176;-86
2022/08/31 09:24:41;;;;;;;15.50;10.52;;;;;;;31.48;36.99;98751.47;5013401;28;20162;-86
2022/08/31 09:27:19;;;;;;;15.23;10.73;;;;;;;33.20;36.71;98956.31;5000453;28;20726;-85
2022/08/31 09:29:51;;;;;;;11.27;9.93;;;;;;;33.44;35.87;98961.09;5019384;28;20218;-88
2022/08/31 09:32:22;;;;;;;15.77;10.30;;;;;;;33.50;35.44;98955.53;5025715;28;20193;-86
2022/08/31 09:35:00;;;;;;;15.57;11.10;;;;;;;33.09;36.13;98948.19;5028430;28;20859;-86
2022/08/31 09:37:32;;;;;;;15.02;10.70;;;;;;;32.26;36.81;98907.19;5025720;28;20186;-86
2022/08/31 09:40:18;;;;;;;15.55;11.05;;;;;;;33.31;36.43;98923.38;5033531;28;20181;-85
2022/08/31 09:42:46;;;;;;;13.35;10.80;;;;;;;33.02;36.03;98830.53;5032523;28;20201;-87
2022/08/31 09:45:28;;;;;;;14.02;10.18;;;;;;;33.56;35.70;98932.41;5040089;28;20193;-87
2022/08/31 09:47:59;;;;;;;15.63;11.32;;;;;;;33.40;36.04;98884.34;5029744;28;20213;-86
2022/08/31 09:50:25;;;;;;;20.08;11.73;;;;;;;33.97;35.80;98927.41;5046527;28;20734;-86
2022/08/31 09:55:34;;;;;;;18.45;11.00;;;;;;;32.79;35.87;98750.50;5031990;28;20188;-86
2022/08/31 09:58:03;;;;;;;15.48;11.23;;;;;;;33.69;34.79;98865.13;5031711;28;20182;-87
2022/08/31 10:00:40;;;;;;;16.05;10.75;;;;;;;33.68;35.71;98920.34;5032195;28;20251;-88
2022/08/31 10:03:12;;;;;;;16.23;10.57;;;;;;;33.90;35.05;98910.28;5030340;28;20194;-85
2022/08/31 10:05:40;;;;;;;13.90;10.75;;;;;;;33.94;35.63;98861.03;5031942;28;20360;-87
2022/08/31 10:08:14;;;;;;;13.82;10.73;;;;;;;34.11;34.54;98905.59;5032503;28;20197;-86
2022/08/31 10:10:43;;;;;;;17.52;10.50;;;;;;;33.36;35.59;98829.44;5029663;28;20991;-88
2022/08/31 10:13:21;;;;;;;17.77;10.25;;;;;;;33.31;35.53;98844.63;5030103;28;20237;-87
2022/08/31 10:15:56;;;;;;;14.20;10.80;;;;;;;33.19;34.21;98793.69;5030423;28;20186;-88
2022/08/31 10:18:33;;;;;;;15.02;10.05;;;;;;;34.06;34.67;98892.69;5029855;28;20301;-88
2022/08/31 10:21:06;;;;;;;12.38;9.68;;;;;;;33.64;34.00;98834.81;5030306;28;20615;-87
2022/08/31 10:23:55;;;;;;;16.40;10.20;;;;;;;34.18;34.31;98889.34;5028844;28;20696;-87
2022/08/31 10:26:35;;;;;;;13.90;10.27;;;;;;;33.34;33.98;98726.34;5030597;28;20170;-86
2022/08/31 10:29:17;;;;;;;14.23;9.55;;;;;;;34.19;33.45;98833.22;5024845;28;20232;-85
2022/08/31 10:31:47;;;;;;;16.00;9.80;;;;;;;34.64;32.94;98868.16;5026230;28;20188;-85
2022/08/31 10:37:30;;;;;;;16.00;10.32;;;;;;;34.34;34.32;98862.97;5030549;28;20234;-88
2022/08/31 10:40:01;;;;;;;15.88;10.40;;;;;;;34.06;34.07;98847.19;5022368;28;20221;-88
2022/08/31 10:42:36;;;;;;;14.45;10.07;;;;;;;33.58;33.54;98724.91;5010401;28;20177;-89
2022/08/31 10:45:17;;;;;;;14.55;9.32;;;;;;;33.88;33.26;98741.41;5010224;28;20181;-88
2022/08/31 10:47:47;;;;;;;15.23;10.35;;;;;;;33.86;34.42;98842.25;5010180;28;20198;-88
2022/08/31 10:50:22;;;;;;;16.42;10.63;;;;;;;33.37;35.65;98844.28;5022068;28;20732;-87
2022/08/31 10:52:55;;;;;;;20.25;11.20;;;;;;;34.14;34.35;98865.97;5029908;28;20165;-88
2022/08/31 10:55:36;;;;;;;13.02;10.70;;;;;;;34.32;34.33;98864.84;5031132;28;20287;-87
2022/08/31 10:58:13;;;;;;;22.20;10.75;;;;;;;34.55;34.16;98855.53;5030897;28;20164;-87
2022/08/31 11:01:05;;;;;;;14.70;9.85;;;;;;;33.89;34.07;98803.53;5029832;28;20162;-87
2022/08/31 11:03:36;;;;;;;17.00;10.63;;;;;;;34.00;34.63;98864.16;5017610;28;20178;-87
2022/08/31 11:06:21;;;;;;;16.10;10.32;;;;;;;33.81;35.33;98754.09;5024324;28;20218;-87
2022/08/31 11:09:11;;;;;;;20.30;10.82;;;;;;;34.56;34.65;98863.31;5011384;28;20233;-87
2022/08/31 11:12:05;;;;;;;15.43;10.90;;;;;;;34.42;35.01;98863.31;5012941;28;20232;-88
2022/08/31 11:14:55;;;;;;;13.65;10.30;;;;;;;34.44;34.94;98856.22;5027568;28;20328;-84
2022/08/31 11:17:34;;;;;;;15.32;10.48;;;;;;;33.81;35.05;98796.13;5037318;28;20173;-87
2022/08/31 11:20:18;;;;;;;17.13;10.73;;;;;;;33.85;35.95;98865.06;5037908;28;20166;-89
2022/08/31 11:22:50;;;;;;;16.38;10.85;;;;;;;33.77;35.83;98852.38;5034935;28;20166;-86
2022/08/31 11:25:32;;;;;;;17.90;10.95;;;;;;;33.75;35.51;98856.91;5027839;28;20170;-84
2022/08/31 11:28:06;;;;;;;16.00;10.18;;;;;;;32.82;35.47;98731.97;5019360;28;20675;-86
2022/08/31 11:30:36;;;;;;;15.65;10.15;;;;;;;33.29;35.74;98844.72;5031604;28;20182;-84
2022/08/31 11:33:15;;;;;;;20.52;9.70;;;;;;;33.90;35.46;98857.75;5027790;28;20554;-87
2022/08/31 11:36:04;;;;;;;15.43;9.93;;;;;;;34.34;34.37;98862.97;5026224;28;20171;-85
2022/08/31 11:39:11;;;;;;;21.05;9.77;;;;;;;34.39;34.58;98856.47;5023063;28;20182;-85
2022/08/31 11:41:45;;;;;;;14.75;8.65;;;;;;;35.25;33.33;98872.97;5009515;28;20257;-87